Bellchester, Minnesota
Current Conditions -  °F | °C
As of 3:51 AM on Wednesday 26 Nov 2014 (Local Time) from KRGK Reporting Station
Broken Clouds Broken Clouds  
Wind Chill: 14°   Ceiling: 7000
Heat Index: 21°   Visibility: 10mi
Dew Point: 14°   Wind: 6mph
Humidity: 74%   Direction: 80°E
Pressure: 30.04"   Gusts: NA
Location:  44.4081°N, 92.5457°W
Report Text: KRGK 260951Z AUTO 08005KT 10SM BKN070 BKN100 M06/M10 A3004 RMK AO2
Loading
Personal Weather Stations






























Interactive Weather Map New forecast layout! Learn more

10-Day Weather Forecast

Advertisements
Track Severe Weather on mobile